sensor_id;sensor_type;location;lat;lon;timestamp;P1;durP1;ratioP1;P2;durP2;ratioP2
73670;SDS011;61968;48.178;11.566;2023-02-15T00:02:00;6.05;;;3.78;;
73670;SDS011;61968;48.178;11.566;2023-02-15T00:04:27;6.82;;;3.90;;
73670;SDS011;61968;48.178;11.566;2023-02-15T00:07:11;4.80;;;3.13;;
73670;SDS011;61968;48.178;11.566;2023-02-15T00:09:38;6.00;;;3.55;;
73670;SDS011;61968;48.178;11.566;2023-02-15T00:12:05;6.00;;;4.40;;
73670;SDS011;61968;48.178;11.566;2023-02-15T00:14:31;9.63;;;4.95;;
73670;SDS011;61968;48.178;11.566;2023-02-15T00:19:26;9.40;;;5.78;;
73670;SDS011;61968;48.178;11.566;2023-02-15T00:21:52;7.57;;;3.65;;
73670;SDS011;61968;48.178;11.566;2023-02-15T00:24:19;8.73;;;4.38;;
73670;SDS011;61968;48.178;11.566;2023-02-15T00:29:13;6.80;;;4.55;;
73670;SDS011;61968;48.178;11.566;2023-02-15T00:31:41;6.03;;;4.25;;
73670;SDS011;61968;48.178;11.566;2023-02-15T00:36:38;4.82;;;3.78;;
73670;SDS011;61968;48.178;11.566;2023-02-15T00:39:05;6.53;;;4.38;;
73670;SDS011;61968;48.178;11.566;2023-02-15T00:43:58;6.00;;;3.67;;
73670;SDS011;61968;48.178;11.566;2023-02-15T00:48:51;8.30;;;3.85;;
73670;SDS011;61968;48.178;11.566;2023-02-15T00:51:19;7.75;;;3.53;;
73670;SDS011;61968;48.178;11.566;2023-02-15T00:53:46;7.63;;;4.30;;
73670;SDS011;61968;48.178;11.566;2023-02-15T00:56:13;5.95;;;4.05;;
73670;SDS011;61968;48.178;11.566;2023-02-15T00:58:40;6.28;;;4.18;;
73670;SDS011;61968;48.178;11.566;2023-02-15T01:03:34;7.68;;;4.10;;
73670;SDS011;61968;48.178;11.566;2023-02-15T01:08:29;5.82;;;3.67;;
73670;SDS011;61968;48.178;11.566;2023-02-15T01:10:56;5.70;;;3.78;;
73670;SDS011;61968;48.178;11.566;2023-02-15T01:15:52;4.82;;;3.30;;
73670;SDS011;61968;48.178;11.566;2023-02-15T01:18:19;5.88;;;3.63;;
73670;SDS011;61968;48.178;11.566;2023-02-15T01:20:45;5.25;;;3.00;;
73670;SDS011;61968;48.178;11.566;2023-02-15T01:23:12;5.35;;;3.13;;
73670;SDS011;61968;48.178;11.566;2023-02-15T01:25:40;6.93;;;3.65;;
73670;SDS011;61968;48.178;11.566;2023-02-15T01:28:07;6.70;;;3.85;;
73670;SDS011;61968;48.178;11.566;2023-02-15T01:30:33;5.55;;;3.33;;
73670;SDS011;61968;48.178;11.566;2023-02-15T01:32:59;3.67;;;3.08;;
73670;SDS011;61968;48.178;11.566;2023-02-15T01:35:26;5.03;;;3.08;;
73670;SDS011;61968;48.178;11.566;2023-02-15T01:37:54;5.95;;;3.47;;
73670;SDS011;61968;48.178;11.566;2023-02-15T01:40:20;4.35;;;2.88;;
73670;SDS011;61968;48.178;11.566;2023-02-15T01:42:51;6.97;;;3.90;;
73670;SDS011;61968;48.178;11.566;2023-02-15T01:45:19;6.60;;;3.75;;
73670;SDS011;61968;48.178;11.566;2023-02-15T01:47:49;5.68;;;3.47;;
73670;SDS011;61968;48.178;11.566;2023-02-15T01:50:21;5.00;;;3.17;;
73670;SDS011;61968;48.178;11.566;2023-02-15T01:52:55;4.57;;;3.67;;
73670;SDS011;61968;48.178;11.566;2023-02-15T01:55:24;6.10;;;3.55;;
73670;SDS011;61968;48.178;11.566;2023-02-15T01:57:54;5.53;;;3.00;;
73670;SDS011;61968;48.178;11.566;2023-02-15T02:00:21;6.15;;;4.00;;
73670;SDS011;61968;48.178;11.566;2023-02-15T02:02:48;7.25;;;3.55;;
73670;SDS011;61968;48.178;11.566;2023-02-15T02:05:19;4.82;;;3.55;;
73670;SDS011;61968;48.178;11.566;2023-02-15T02:10:14;3.85;;;3.30;;
73670;SDS011;61968;48.178;11.566;2023-02-15T02:12:42;5.88;;;3.67;;
73670;SDS011;61968;48.178;11.566;2023-02-15T02:15:14;5.95;;;3.33;;
73670;SDS011;61968;48.178;11.566;2023-02-15T02:17:44;4.28;;;3.25;;
73670;SDS011;61968;48.178;11.566;2023-02-15T02:20:26;4.20;;;3.28;;
73670;SDS011;61968;48.178;11.566;2023-02-15T02:23:05;4.45;;;3.75;;
73670;SDS011;61968;48.178;11.566;2023-02-15T02:28:51;5.70;;;3.85;;
73670;SDS011;61968;48.178;11.566;2023-02-15T02:31:47;6.00;;;3.47;;
73670;SDS011;61968;48.178;11.566;2023-02-15T02:34:30;5.35;;;3.58;;
73670;SDS011;61968;48.178;11.566;2023-02-15T02:36:59;5.43;;;2.83;;
73670;SDS011;61968;48.178;11.566;2023-02-15T02:39:33;5.50;;;3.60;;
73670;SDS011;61968;48.178;11.566;2023-02-15T02:42:11;5.55;;;3.47;;
73670;SDS011;61968;48.178;11.566;2023-02-15T02:44:45;6.10;;;3.38;;
73670;SDS011;61968;48.178;11.566;2023-02-15T02:47:16;6.60;;;3.70;;
73670;SDS011;61968;48.178;11.566;2023-02-15T02:49:51;8.00;;;3.42;;
73670;SDS011;61968;48.178;11.566;2023-02-15T02:52:34;5.63;;;3.45;;
73670;SDS011;61968;48.178;11.566;2023-02-15T02:55:03;5.65;;;3.15;;
73670;SDS011;61968;48.178;11.566;2023-02-15T02:57:32;6.05;;;4.00;;
73670;SDS011;61968;48.178;11.566;2023-02-15T03:00:03;7.25;;;5.28;;
73670;SDS011;61968;48.178;11.566;2023-02-15T03:02:34;5.80;;;3.47;;
73670;SDS011;61968;48.178;11.566;2023-02-15T03:05:07;5.22;;;3.67;;
73670;SDS011;61968;48.178;11.566;2023-02-15T03:07:38;6.53;;;4.05;;
73670;SDS011;61968;48.178;11.566;2023-02-15T03:10:07;7.85;;;4.13;;
73670;SDS011;61968;48.178;11.566;2023-02-15T03:12:35;4.80;;;4.00;;
73670;SDS011;61968;48.178;11.566;2023-02-15T03:15:06;7.82;;;4.88;;
73670;SDS011;61968;48.178;11.566;2023-02-15T03:17:37;6.72;;;4.40;;
73670;SDS011;61968;48.178;11.566;2023-02-15T03:20:09;7.22;;;4.70;;
73670;SDS011;61968;48.178;11.566;2023-02-15T03:25:09;6.80;;;3.95;;
73670;SDS011;61968;48.178;11.566;2023-02-15T03:27:39;6.20;;;3.50;;
73670;SDS011;61968;48.178;11.566;2023-02-15T03:30:08;7.38;;;4.00;;
73670;SDS011;61968;48.178;11.566;2023-02-15T03:32:36;8.38;;;3.83;;
73670;SDS011;61968;48.178;11.566;2023-02-15T03:35:05;7.05;;;3.88;;
73670;SDS011;61968;48.178;11.566;2023-02-15T03:37:35;5.70;;;3.70;;
73670;SDS011;61968;48.178;11.566;2023-02-15T03:40:07;5.88;;;3.55;;
73670;SDS011;61968;48.178;11.566;2023-02-15T03:42:56;5.32;;;3.85;;
73670;SDS011;61968;48.178;11.566;2023-02-15T03:45:29;5.95;;;3.45;;
73670;SDS011;61968;48.178;11.566;2023-02-15T03:47:59;5.22;;;3.70;;
73670;SDS011;61968;48.178;11.566;2023-02-15T03:50:28;9.70;;;4.78;;
73670;SDS011;61968;48.178;11.566;2023-02-15T03:53:16;7.57;;;4.03;;
73670;SDS011;61968;48.178;11.566;2023-02-15T03:55:46;8.25;;;4.47;;
73670;SDS011;61968;48.178;11.566;2023-02-15T03:58:12;8.60;;;4.82;;
73670;SDS011;61968;48.178;11.566;2023-02-15T04:00:57;6.88;;;4.05;;
73670;SDS011;61968;48.178;11.566;2023-02-15T04:03:43;7.80;;;3.47;;
73670;SDS011;61968;48.178;11.566;2023-02-15T04:06:15;6.28;;;4.30;;
73670;SDS011;61968;48.178;11.566;2023-02-15T04:08:43;9.10;;;5.00;;
73670;SDS011;61968;48.178;11.566;2023-02-15T04:11:27;7.75;;;4.40;;
73670;SDS011;61968;48.178;11.566;2023-02-15T04:13:53;7.68;;;3.95;;
73670;SDS011;61968;48.178;11.566;2023-02-15T04:16:21;7.32;;;4.00;;
73670;SDS011;61968;48.178;11.566;2023-02-15T04:18:47;6.28;;;4.78;;
73670;SDS011;61968;48.178;11.566;2023-02-15T04:21:31;9.55;;;4.28;;
73670;SDS011;61968;48.178;11.566;2023-02-15T04:24:16;6.80;;;3.75;;
73670;SDS011;61968;48.178;11.566;2023-02-15T04:27:01;6.97;;;4.18;;
73670;SDS011;61968;48.178;11.566;2023-02-15T04:29:29;7.95;;;4.70;;
73670;SDS011;61968;48.178;11.566;2023-02-15T04:31:57;24.50;;;13.27;;
73670;SDS011;61968;48.178;11.566;2023-02-15T04:34:25;18.52;;;9.13;;
73670;SDS011;61968;48.178;11.566;2023-02-15T04:36:52;24.98;;;13.02;;
73670;SDS011;61968;48.178;11.566;2023-02-15T04:39:19;11.60;;;6.45;;
73670;SDS011;61968;48.178;11.566;2023-02-15T04:41:46;11.40;;;7.28;;
73670;SDS011;61968;48.178;11.566;2023-02-15T04:44:13;11.57;;;6.80;;
73670;SDS011;61968;48.178;11.566;2023-02-15T04:46:39;10.35;;;6.88;;
73670;SDS011;61968;48.178;11.566;2023-02-15T04:49:05;9.73;;;5.50;;
73670;SDS011;61968;48.178;11.566;2023-02-15T04:51:32;6.22;;;4.55;;
73670;SDS011;61968;48.178;11.566;2023-02-15T04:53:59;7.80;;;4.68;;
73670;SDS011;61968;48.178;11.566;2023-02-15T04:56:26;7.40;;;5.00;;
73670;SDS011;61968;48.178;11.566;2023-02-15T04:58:54;6.07;;;4.80;;
73670;SDS011;61968;48.178;11.566;2023-02-15T05:01:21;7.22;;;4.35;;
73670;SDS011;61968;48.178;11.566;2023-02-15T05:03:48;8.40;;;4.57;;
73670;SDS011;61968;48.178;11.566;2023-02-15T05:08:40;6.03;;;3.88;;
73670;SDS011;61968;48.178;11.566;2023-02-15T05:13:35;6.18;;;4.43;;
73670;SDS011;61968;48.178;11.566;2023-02-15T05:16:01;9.38;;;4.82;;
73670;SDS011;61968;48.178;11.566;2023-02-15T05:18:27;8.43;;;5.10;;
73670;SDS011;61968;48.178;11.566;2023-02-15T05:20:54;6.88;;;4.28;;
73670;SDS011;61968;48.178;11.566;2023-02-15T05:25:47;6.95;;;4.63;;
73670;SDS011;61968;48.178;11.566;2023-02-15T05:28:31;11.45;;;4.72;;
73670;SDS011;61968;48.178;11.566;2023-02-15T05:31:01;8.10;;;4.53;;
73670;SDS011;61968;48.178;11.566;2023-02-15T05:33:30;7.93;;;4.72;;
73670;SDS011;61968;48.178;11.566;2023-02-15T05:35:57;10.85;;;5.13;;
73670;SDS011;61968;48.178;11.566;2023-02-15T05:40:50;9.48;;;4.57;;
73670;SDS011;61968;48.178;11.566;2023-02-15T05:43:16;6.82;;;4.13;;
73670;SDS011;61968;48.178;11.566;2023-02-15T05:45:44;7.57;;;4.60;;
73670;SDS011;61968;48.178;11.566;2023-02-15T05:48:12;9.77;;;4.57;;
73670;SDS011;61968;48.178;11.566;2023-02-15T05:50:38;9.40;;;4.35;;
73670;SDS011;61968;48.178;11.566;2023-02-15T05:53:05;9.80;;;5.20;;
73670;SDS011;61968;48.178;11.566;2023-02-15T05:55:31;10.98;;;5.38;;
73670;SDS011;61968;48.178;11.566;2023-02-15T05:57:58;7.75;;;4.60;;
73670;SDS011;61968;48.178;11.566;2023-02-15T06:00:24;12.18;;;6.32;;
73670;SDS011;61968;48.178;11.566;2023-02-15T06:02:51;9.23;;;5.13;;
73670;SDS011;61968;48.178;11.566;2023-02-15T06:05:19;8.15;;;4.90;;
73670;SDS011;61968;48.178;11.566;2023-02-15T06:07:45;7.88;;;4.65;;
73670;SDS011;61968;48.178;11.566;2023-02-15T06:10:11;8.13;;;4.72;;
73670;SDS011;61968;48.178;11.566;2023-02-15T06:12:38;12.43;;;5.72;;
73670;SDS011;61968;48.178;11.566;2023-02-15T06:15:05;11.88;;;6.10;;
73670;SDS011;61968;48.178;11.566;2023-02-15T06:17:32;9.90;;;4.95;;
73670;SDS011;61968;48.178;11.566;2023-02-15T06:19:58;13.95;;;5.55;;
73670;SDS011;61968;48.178;11.566;2023-02-15T06:22:26;13.05;;;6.20;;
73670;SDS011;61968;48.178;11.566;2023-02-15T06:24:52;9.32;;;5.05;;
73670;SDS011;61968;48.178;11.566;2023-02-15T06:27:20;9.27;;;5.53;;
73670;SDS011;61968;48.178;11.566;2023-02-15T06:29:46;12.35;;;5.38;;
73670;SDS011;61968;48.178;11.566;2023-02-15T06:32:13;10.65;;;6.28;;
73670;SDS011;61968;48.178;11.566;2023-02-15T06:34:39;11.75;;;5.53;;
73670;SDS011;61968;48.178;11.566;2023-02-15T06:37:06;11.38;;;5.30;;
73670;SDS011;61968;48.178;11.566;2023-02-15T06:39:34;12.35;;;6.18;;
73670;SDS011;61968;48.178;11.566;2023-02-15T06:42:01;9.48;;;5.25;;
73670;SDS011;61968;48.178;11.566;2023-02-15T06:44:27;9.75;;;5.88;;
73670;SDS011;61968;48.178;11.566;2023-02-15T06:46:54;13.88;;;7.78;;
73670;SDS011;61968;48.178;11.566;2023-02-15T06:49:20;12.38;;;6.60;;
73670;SDS011;61968;48.178;11.566;2023-02-15T06:51:47;11.02;;;5.78;;
73670;SDS011;61968;48.178;11.566;2023-02-15T06:54:13;8.45;;;5.38;;
73670;SDS011;61968;48.178;11.566;2023-02-15T06:56:41;12.98;;;6.70;;
73670;SDS011;61968;48.178;11.566;2023-02-15T06:59:08;13.25;;;6.38;;
73670;SDS011;61968;48.178;11.566;2023-02-15T07:01:35;11.60;;;5.95;;
73670;SDS011;61968;48.178;11.566;2023-02-15T07:04:03;12.15;;;6.35;;
73670;SDS011;61968;48.178;11.566;2023-02-15T07:08:57;8.43;;;4.50;;
73670;SDS011;61968;48.178;11.566;2023-02-15T07:11:23;12.60;;;5.93;;
73670;SDS011;61968;48.178;11.566;2023-02-15T07:14:09;14.77;;;6.07;;
73670;SDS011;61968;48.178;11.566;2023-02-15T07:16:36;13.40;;;5.82;;
73670;SDS011;61968;48.178;11.566;2023-02-15T07:19:02;10.98;;;5.15;;
73670;SDS011;61968;48.178;11.566;2023-02-15T07:21:28;13.82;;;6.30;;
73670;SDS011;61968;48.178;11.566;2023-02-15T07:23:55;11.48;;;6.07;;
73670;SDS011;61968;48.178;11.566;2023-02-15T07:26:23;17.65;;;6.43;;
73670;SDS011;61968;48.178;11.566;2023-02-15T07:31:17;13.02;;;6.55;;
73670;SDS011;61968;48.178;11.566;2023-02-15T07:33:43;9.95;;;6.03;;
73670;SDS011;61968;48.178;11.566;2023-02-15T07:36:10;11.43;;;6.47;;
73670;SDS011;61968;48.178;11.566;2023-02-15T07:38:38;14.05;;;6.03;;
73670;SDS011;61968;48.178;11.566;2023-02-15T07:41:07;9.98;;;4.97;;
73670;SDS011;61968;48.178;11.566;2023-02-15T07:43:35;8.40;;;5.68;;
73670;SDS011;61968;48.178;11.566;2023-02-15T07:46:04;10.98;;;4.95;;
73670;SDS011;61968;48.178;11.566;2023-02-15T07:48:33;9.55;;;5.40;;
73670;SDS011;61968;48.178;11.566;2023-02-15T07:51:02;12.63;;;6.55;;
73670;SDS011;61968;48.178;11.566;2023-02-15T07:53:30;12.05;;;5.97;;
73670;SDS011;61968;48.178;11.566;2023-02-15T07:55:58;10.40;;;5.60;;
73670;SDS011;61968;48.178;11.566;2023-02-15T07:58:25;14.93;;;7.13;;
73670;SDS011;61968;48.178;11.566;2023-02-15T08:01:12;12.35;;;6.45;;
73670;SDS011;61968;48.178;11.566;2023-02-15T08:03:40;13.32;;;6.80;;
73670;SDS011;61968;48.178;11.566;2023-02-15T08:06:07;14.40;;;7.78;;
73670;SDS011;61968;48.178;11.566;2023-02-15T08:08:34;12.93;;;6.82;;
73670;SDS011;61968;48.178;11.566;2023-02-15T08:11:01;17.40;;;6.65;;
73670;SDS011;61968;48.178;11.566;2023-02-15T08:13:47;15.32;;;6.68;;
73670;SDS011;61968;48.178;11.566;2023-02-15T08:16:22;13.63;;;5.72;;
73670;SDS011;61968;48.178;11.566;2023-02-15T08:18:51;17.48;;;7.55;;
73670;SDS011;61968;48.178;11.566;2023-02-15T08:21:18;12.63;;;6.95;;
73670;SDS011;61968;48.178;11.566;2023-02-15T08:23:44;10.35;;;5.93;;
73670;SDS011;61968;48.178;11.566;2023-02-15T08:26:11;13.93;;;6.40;;
73670;SDS011;61968;48.178;11.566;2023-02-15T08:28:38;12.63;;;6.57;;
73670;SDS011;61968;48.178;11.566;2023-02-15T08:31:05;12.95;;;6.55;;
73670;SDS011;61968;48.178;11.566;2023-02-15T08:33:32;12.90;;;7.35;;
73670;SDS011;61968;48.178;11.566;2023-02-15T08:36:03;14.20;;;7.28;;
73670;SDS011;61968;48.178;11.566;2023-02-15T08:38:30;16.48;;;8.35;;
73670;SDS011;61968;48.178;11.566;2023-02-15T08:40:58;15.80;;;6.70;;
73670;SDS011;61968;48.178;11.566;2023-02-15T08:43:24;10.63;;;6.03;;
73670;SDS011;61968;48.178;11.566;2023-02-15T08:45:50;15.02;;;8.20;;
73670;SDS011;61968;48.178;11.566;2023-02-15T08:48:17;12.00;;;6.97;;
73670;SDS011;61968;48.178;11.566;2023-02-15T08:50:44;14.63;;;6.68;;
73670;SDS011;61968;48.178;11.566;2023-02-15T08:53:11;11.65;;;6.43;;
73670;SDS011;61968;48.178;11.566;2023-02-15T08:55:38;13.95;;;7.18;;
73670;SDS011;61968;48.178;11.566;2023-02-15T08:58:05;13.15;;;7.35;;
73670;SDS011;61968;48.178;11.566;2023-02-15T09:00:32;11.27;;;6.72;;
73670;SDS011;61968;48.178;11.566;2023-02-15T09:02:58;13.38;;;6.60;;
73670;SDS011;61968;48.178;11.566;2023-02-15T09:05:25;16.83;;;7.57;;
73670;SDS011;61968;48.178;11.566;2023-02-15T09:07:51;13.85;;;7.53;;
73670;SDS011;61968;48.178;11.566;2023-02-15T09:10:19;18.17;;;8.20;;
73670;SDS011;61968;48.178;11.566;2023-02-15T09:12:46;11.95;;;7.25;;
73670;SDS011;61968;48.178;11.566;2023-02-15T09:15:15;21.08;;;7.25;;
73670;SDS011;61968;48.178;11.566;2023-02-15T09:17:41;15.73;;;7.72;;
73670;SDS011;61968;48.178;11.566;2023-02-15T09:20:08;12.60;;;6.78;;
73670;SDS011;61968;48.178;11.566;2023-02-15T09:22:35;17.13;;;7.95;;
73670;SDS011;61968;48.178;11.566;2023-02-15T09:25:01;14.73;;;7.72;;
73670;SDS011;61968;48.178;11.566;2023-02-15T09:27:29;13.52;;;7.32;;
73670;SDS011;61968;48.178;11.566;2023-02-15T09:29:56;12.52;;;6.68;;
73670;SDS011;61968;48.178;11.566;2023-02-15T09:32:22;16.67;;;8.45;;
73670;SDS011;61968;48.178;11.566;2023-02-15T09:34:49;15.68;;;8.73;;
73670;SDS011;61968;48.178;11.566;2023-02-15T09:37:15;19.30;;;9.77;;
73670;SDS011;61968;48.178;11.566;2023-02-15T09:39:42;19.73;;;9.55;;
73670;SDS011;61968;48.178;11.566;2023-02-15T09:42:13;16.00;;;8.32;;
73670;SDS011;61968;48.178;11.566;2023-02-15T09:45:00;16.88;;;8.43;;
73670;SDS011;61968;48.178;11.566;2023-02-15T09:47:44;16.88;;;8.50;;
73670;SDS011;61968;48.178;11.566;2023-02-15T09:50:28;14.90;;;8.15;;
73670;SDS011;61968;48.178;11.566;2023-02-15T09:53:09;19.30;;;9.13;;
73670;SDS011;61968;48.178;11.566;2023-02-15T09:56:09;17.15;;;8.18;;
73670;SDS011;61968;48.178;11.566;2023-02-15T09:58:46;18.85;;;8.52;;
73670;SDS011;61968;48.178;11.566;2023-02-15T10:01:25;18.42;;;8.65;;
73670;SDS011;61968;48.178;11.566;2023-02-15T10:04:03;19.77;;;10.00;;
73670;SDS011;61968;48.178;11.566;2023-02-15T10:06:42;22.55;;;10.50;;
73670;SDS011;61968;48.178;11.566;2023-02-15T10:09:15;21.15;;;9.60;;
73670;SDS011;61968;48.178;11.566;2023-02-15T10:11:53;23.35;;;9.10;;
73670;SDS011;61968;48.178;11.566;2023-02-15T10:14:37;17.85;;;8.77;;
73670;SDS011;61968;48.178;11.566;2023-02-15T10:17:18;17.65;;;8.18;;
73670;SDS011;61968;48.178;11.566;2023-02-15T10:19:56;17.67;;;9.48;;
73670;SDS011;61968;48.178;11.566;2023-02-15T10:22:33;19.27;;;9.55;;
73670;SDS011;61968;48.178;11.566;2023-02-15T10:25:14;17.52;;;9.05;;
73670;SDS011;61968;48.178;11.566;2023-02-15T10:27:50;21.17;;;9.25;;
73670;SDS011;61968;48.178;11.566;2023-02-15T10:32:53;15.23;;;8.57;;
73670;SDS011;61968;48.178;11.566;2023-02-15T10:35:26;14.60;;;7.38;;
73670;SDS011;61968;48.178;11.566;2023-02-15T10:38:08;27.88;;;9.30;;
73670;SDS011;61968;48.178;11.566;2023-02-15T10:40:45;21.80;;;9.32;;
73670;SDS011;61968;48.178;11.566;2023-02-15T10:43:28;27.38;;;12.27;;
73670;SDS011;61968;48.178;11.566;2023-02-15T10:46:08;16.13;;;9.27;;
73670;SDS011;61968;48.178;11.566;2023-02-15T10:48:43;21.23;;;11.02;;
73670;SDS011;61968;48.178;11.566;2023-02-15T10:51:25;20.55;;;11.10;;
73670;SDS011;61968;48.178;11.566;2023-02-15T10:54:14;20.75;;;11.00;;
73670;SDS011;61968;48.178;11.566;2023-02-15T10:56:53;21.27;;;9.98;;
73670;SDS011;61968;48.178;11.566;2023-02-15T10:59:35;17.67;;;10.02;;
73670;SDS011;61968;48.178;11.566;2023-02-15T11:02:15;19.08;;;10.48;;
73670;SDS011;61968;48.178;11.566;2023-02-15T11:04:52;18.15;;;9.68;;
73670;SDS011;61968;48.178;11.566;2023-02-15T11:07:26;17.80;;;10.20;;
73670;SDS011;61968;48.178;11.566;2023-02-15T11:10:00;17.30;;;9.73;;
73670;SDS011;61968;48.178;11.566;2023-02-15T11:12:32;20.48;;;10.68;;
73670;SDS011;61968;48.178;11.566;2023-02-15T11:15:00;19.60;;;10.25;;
73670;SDS011;61968;48.178;11.566;2023-02-15T11:17:38;22.42;;;9.77;;
73670;SDS011;61968;48.178;11.566;2023-02-15T11:20:16;22.20;;;9.98;;
73670;SDS011;61968;48.178;11.566;2023-02-15T11:22:48;15.27;;;8.93;;
73670;SDS011;61968;48.178;11.566;2023-02-15T11:25:19;15.77;;;10.02;;
73670;SDS011;61968;48.178;11.566;2023-02-15T11:27:49;21.70;;;10.52;;
73670;SDS011;61968;48.178;11.566;2023-02-15T11:30:19;22.27;;;10.35;;
73670;SDS011;61968;48.178;11.566;2023-02-15T11:32:48;23.90;;;10.27;;
73670;SDS011;61968;48.178;11.566;2023-02-15T11:35:20;21.35;;;10.07;;
73670;SDS011;61968;48.178;11.566;2023-02-15T11:37:51;18.83;;;9.82;;
73670;SDS011;61968;48.178;11.566;2023-02-15T11:40:24;21.08;;;11.13;;
73670;SDS011;61968;48.178;11.566;2023-02-15T11:42:55;19.30;;;10.45;;
73670;SDS011;61968;48.178;11.566;2023-02-15T11:45:26;19.95;;;10.13;;
73670;SDS011;61968;48.178;11.566;2023-02-15T11:47:54;21.17;;;10.98;;
73670;SDS011;61968;48.178;11.566;2023-02-15T11:50:24;21.75;;;10.40;;
73670;SDS011;61968;48.178;11.566;2023-02-15T11:52:54;18.83;;;10.45;;
73670;SDS011;61968;48.178;11.566;2023-02-15T11:55:24;21.50;;;10.50;;
73670;SDS011;61968;48.178;11.566;2023-02-15T11:57:54;18.92;;;10.77;;
73670;SDS011;61968;48.178;11.566;2023-02-15T12:00:29;22.05;;;10.70;;
73670;SDS011;61968;48.178;11.566;2023-02-15T12:03:02;22.60;;;11.02;;
73670;SDS011;61968;48.178;11.566;2023-02-15T12:05:36;17.25;;;10.55;;
73670;SDS011;61968;48.178;11.566;2023-02-15T12:08:09;20.27;;;10.45;;
73670;SDS011;61968;48.178;11.566;2023-02-15T12:10:42;29.55;;;11.60;;
73670;SDS011;61968;48.178;11.566;2023-02-15T12:13:16;20.88;;;10.10;;
73670;SDS011;61968;48.178;11.566;2023-02-15T12:15:44;24.50;;;12.20;;
73670;SDS011;61968;48.178;11.566;2023-02-15T12:21:03;19.45;;;10.57;;
73670;SDS011;61968;48.178;11.566;2023-02-15T12:23:32;18.45;;;9.63;;
73670;SDS011;61968;48.178;11.566;2023-02-15T12:26:05;22.25;;;9.88;;
73670;SDS011;61968;48.178;11.566;2023-02-15T12:28:32;18.65;;;9.63;;
73670;SDS011;61968;48.178;11.566;2023-02-15T12:31:01;22.35;;;11.32;;
73670;SDS011;61968;48.178;11.566;2023-02-15T12:33:29;15.90;;;10.80;;
73670;SDS011;61968;48.178;11.566;2023-02-15T12:36:00;17.30;;;9.80;;
73670;SDS011;61968;48.178;11.566;2023-02-15T12:38:35;17.92;;;10.48;;
73670;SDS011;61968;48.178;11.566;2023-02-15T12:41:03;25.73;;;11.32;;
73670;SDS011;61968;48.178;11.566;2023-02-15T12:43:32;18.25;;;9.90;;
73670;SDS011;61968;48.178;11.566;2023-02-15T12:46:13;17.98;;;10.23;;
73670;SDS011;61968;48.178;11.566;2023-02-15T12:48:45;19.75;;;10.80;;
73670;SDS011;61968;48.178;11.566;2023-02-15T12:51:14;21.10;;;10.48;;
73670;SDS011;61968;48.178;11.566;2023-02-15T12:53:42;22.17;;;11.45;;
73670;SDS011;61968;48.178;11.566;2023-02-15T12:56:09;28.15;;;9.73;;
73670;SDS011;61968;48.178;11.566;2023-02-15T12:58:36;24.00;;;10.20;;
73670;SDS011;61968;48.178;11.566;2023-02-15T13:01:09;22.80;;;11.48;;
73670;SDS011;61968;48.178;11.566;2023-02-15T13:03:38;23.15;;;10.30;;
73670;SDS011;61968;48.178;11.566;2023-02-15T13:06:20;25.08;;;11.30;;
73670;SDS011;61968;48.178;11.566;2023-02-15T13:08:47;16.45;;;9.93;;
73670;SDS011;61968;48.178;11.566;2023-02-15T13:11:19;18.45;;;9.60;;
73670;SDS011;61968;48.178;11.566;2023-02-15T13:13:51;18.50;;;9.23;;
73670;SDS011;61968;48.178;11.566;2023-02-15T13:16:20;15.93;;;9.48;;
73670;SDS011;61968;48.178;11.566;2023-02-15T13:18:50;14.55;;;9.15;;
73670;SDS011;61968;48.178;11.566;2023-02-15T13:21:20;17.67;;;9.80;;
73670;SDS011;61968;48.178;11.566;2023-02-15T13:23:51;17.35;;;8.90;;
73670;SDS011;61968;48.178;11.566;2023-02-15T13:26:23;14.45;;;8.82;;
73670;SDS011;61968;48.178;11.566;2023-02-15T13:28:56;15.60;;;8.73;;
73670;SDS011;61968;48.178;11.566;2023-02-15T13:31:28;14.43;;;9.10;;
73670;SDS011;61968;48.178;11.566;2023-02-15T13:33:58;15.77;;;9.25;;
73670;SDS011;61968;48.178;11.566;2023-02-15T13:36:34;13.27;;;9.05;;
73670;SDS011;61968;48.178;11.566;2023-02-15T13:39:11;15.73;;;8.60;;
73670;SDS011;61968;48.178;11.566;2023-02-15T13:41:51;15.98;;;9.30;;
73670;SDS011;61968;48.178;11.566;2023-02-15T13:44:27;18.92;;;10.10;;
73670;SDS011;61968;48.178;11.566;2023-02-15T13:47:17;18.85;;;8.88;;
73670;SDS011;61968;48.178;11.566;2023-02-15T13:49:51;15.30;;;8.80;;
73670;SDS011;61968;48.178;11.566;2023-02-15T13:55:17;15.68;;;7.97;;
73670;SDS011;61968;48.178;11.566;2023-02-15T14:01:08;15.45;;;8.50;;
73670;SDS011;61968;48.178;11.566;2023-02-15T14:03:49;14.55;;;8.18;;
73670;SDS011;61968;48.178;11.566;2023-02-15T14:06:39;12.88;;;7.90;;
73670;SDS011;61968;48.178;11.566;2023-02-15T14:09:23;11.95;;;8.02;;
73670;SDS011;61968;48.178;11.566;2023-02-15T14:11:58;12.30;;;8.35;;
73670;SDS011;61968;48.178;11.566;2023-02-15T14:14:39;17.60;;;9.57;;
73670;SDS011;61968;48.178;11.566;2023-02-15T14:17:16;13.40;;;8.32;;
73670;SDS011;61968;48.178;11.566;2023-02-15T14:19:50;14.50;;;8.10;;
73670;SDS011;61968;48.178;11.566;2023-02-15T14:22:22;12.43;;;5.82;;
73670;SDS011;61968;48.178;11.566;2023-02-15T14:24:59;20.27;;;9.52;;
73670;SDS011;61968;48.178;11.566;2023-02-15T14:27:45;13.00;;;6.47;;
73670;SDS011;61968;48.178;11.566;2023-02-15T14:32:50;14.02;;;8.23;;
73670;SDS011;61968;48.178;11.566;2023-02-15T14:35:21;13.48;;;7.55;;
73670;SDS011;61968;48.178;11.566;2023-02-15T14:37:50;14.48;;;8.52;;
73670;SDS011;61968;48.178;11.566;2023-02-15T14:40:33;10.85;;;7.43;;
73670;SDS011;61968;48.178;11.566;2023-02-15T14:43:27;12.52;;;8.15;;
73670;SDS011;61968;48.178;11.566;2023-02-15T14:46:01;13.82;;;8.07;;
73670;SDS011;61968;48.178;11.566;2023-02-15T14:48:35;16.65;;;8.93;;
73670;SDS011;61968;48.178;11.566;2023-02-15T14:51:04;9.85;;;6.93;;
73670;SDS011;61968;48.178;11.566;2023-02-15T14:56:19;15.95;;;9.07;;
73670;SDS011;61968;48.178;11.566;2023-02-15T14:58:54;15.57;;;7.65;;
73670;SDS011;61968;48.178;11.566;2023-02-15T15:01:25;12.35;;;8.00;;
73670;SDS011;61968;48.178;11.566;2023-02-15T15:03:54;10.85;;;8.20;;
73670;SDS011;61968;48.178;11.566;2023-02-15T15:06:24;15.63;;;9.10;;
73670;SDS011;61968;48.178;11.566;2023-02-15T15:08:53;12.27;;;8.32;;
73670;SDS011;61968;48.178;11.566;2023-02-15T15:14:37;14.90;;;8.23;;
73670;SDS011;61968;48.178;11.566;2023-02-15T15:17:06;19.27;;;9.57;;
73670;SDS011;61968;48.178;11.566;2023-02-15T15:22:39;16.58;;;7.97;;
73670;SDS011;61968;48.178;11.566;2023-02-15T15:25:11;13.30;;;8.82;;
73670;SDS011;61968;48.178;11.566;2023-02-15T15:28:00;13.90;;;8.57;;
73670;SDS011;61968;48.178;11.566;2023-02-15T15:33:39;15.60;;;9.05;;
73670;SDS011;61968;48.178;11.566;2023-02-15T15:42:42;14.90;;;8.38;;
73670;SDS011;61968;48.178;11.566;2023-02-15T15:45:25;15.70;;;9.00;;
73670;SDS011;61968;48.178;11.566;2023-02-15T15:48:13;15.85;;;8.95;;
73670;SDS011;61968;48.178;11.566;2023-02-15T15:50:56;18.63;;;8.73;;
73670;SDS011;61968;48.178;11.566;2023-02-15T15:53:25;14.50;;;8.60;;
73670;SDS011;61968;48.178;11.566;2023-02-15T15:55:55;12.70;;;8.25;;
73670;SDS011;61968;48.178;11.566;2023-02-15T15:58:25;17.88;;;9.52;;
73670;SDS011;61968;48.178;11.566;2023-02-15T16:00:54;21.83;;;10.52;;
73670;SDS011;61968;48.178;11.566;2023-02-15T16:03:25;19.13;;;8.90;;